Time;durP1;ratioP1;P1;durP2;ratioP2;P2;SDS_P1;SDS_P2;PMS_P1;PMS_P2;Temp;Humidity;BMP_temperature;BMP_pressure;BME280_temperature;BME280_humidity;BME280_pressure;Samples;Min_cycle;Max_cycle;Signal;HPM_P1;HPM_P2
2022/05/28 00:01:15;;;;;;;;;4.00;4.00;;;;;;;;5225786;28;8785;-68
2022/05/28 00:03:46;;;;;;;;;6.00;6.00;;;;;;;;5224641;28;8793;-67
2022/05/28 00:06:18;;;;;;;;;4.00;4.00;;;;;;;;5225890;28;8861;-68
2022/05/28 00:08:49;;;;;;;;;4.00;4.00;;;;;;;;5224704;28;8806;-68
2022/05/28 00:11:23;;;;;;;;;4.25;4.25;;;;;;;;5228526;28;8791;-68
2022/05/28 00:13:54;;;;;;;;;3.00;3.00;;;;;;;;5245692;28;8958;-67
2022/05/28 00:16:25;;;;;;;;;6.25;6.25;;;;;;;;5236898;28;8944;-68
2022/05/28 00:18:56;;;;;;;;;7.00;7.00;;;;;;;;5224650;28;8802;-68
2022/05/28 00:21:45;;;;;;;;;6.20;6.20;;;;;;;;5225660;28;11483;-68
2022/05/28 00:24:16;;;;;;;;;5.00;5.00;;;;;;;;5225601;28;8798;-68
2022/05/28 00:26:47;;;;;;;;;6.00;6.00;;;;;;;;5225393;28;11570;-68
2022/05/28 00:29:17;;;;;;;;;6.33;6.33;;;;;;;;5224471;28;8781;-68
2022/05/28 00:31:48;;;;;;;;;7.00;7.00;;;;;;;;5207959;28;8962;-68
2022/05/28 00:34:40;;;;;;;;;8.40;8.40;;;;;;;;5242132;28;9505;-68
2022/05/28 00:37:11;;;;;;;;;12.80;12.40;;;;;;;;5244709;28;8787;-68
2022/05/28 00:40:06;;;;;;;;;11.60;11.60;;;;;;;;5245160;28;9658;-68
2022/05/28 00:42:37;;;;;;;;;11.20;11.20;;;;;;;;5246255;28;9686;-68
2022/05/28 00:45:08;;;;;;;;;16.00;15.80;;;;;;;;5245935;28;9439;-68
2022/05/28 00:47:43;;;;;;;;;20.80;20.80;;;;;;;;5244990;28;8799;-68
2022/05/28 00:50:16;;;;;;;;;18.20;18.20;;;;;;;;5223687;28;8809;-68
2022/05/28 00:52:47;;;;;;;;;11.60;11.60;;;;;;;;5225430;28;8771;-68
2022/05/28 00:55:19;;;;;;;;;11.25;11.25;;;;;;;;5235477;28;8810;-68
2022/05/28 00:57:50;;;;;;;;;9.40;9.40;;;;;;;;5224340;28;10507;-68
2022/05/28 01:00:22;;;;;;;;;14.25;14.25;;;;;;;;5224202;28;8770;-68
2022/05/28 01:02:53;;;;;;;;;15.80;15.80;;;;;;;;5225451;28;11489;-68
2022/05/28 01:05:31;;;;;;;;;21.80;21.80;;;;;;;;5225016;28;8805;-68
2022/05/28 01:08:11;;;;;;;;;16.60;16.60;;;;;;;;5224359;28;8758;-68
2022/05/28 01:11:00;;;;;;;;;16.40;16.00;;;;;;;;5233859;28;8791;-68
2022/05/28 01:13:49;;;;;;;;;12.20;12.20;;;;;;;;5240342;28;8793;-68
2022/05/28 01:16:38;;;;;;;;;11.20;11.20;;;;;;;;5225353;28;8869;-68
2022/05/28 01:19:24;;;;;;;;;11.50;11.50;;;;;;;;5224981;28;8774;-69
2022/05/28 01:21:58;;;;;;;;;34.40;32.80;;;;;;;;5226055;28;8935;-68
2022/05/28 01:24:29;;;;;;;;;54.40;42.80;;;;;;;;5228554;28;8781;-68
2022/05/28 01:27:06;;;;;;;;;28.00;27.80;;;;;;;;5229426;28;8762;-68
2022/05/28 01:29:42;;;;;;;;;13.80;13.40;;;;;;;;5243824;28;8786;-68
2022/05/28 01:32:15;;;;;;;;;12.00;12.00;;;;;;;;5213906;28;8775;-68
2022/05/28 01:34:47;;;;;;;;;9.25;9.25;;;;;;;;5224526;28;8825;-67
2022/05/28 01:37:19;;;;;;;;;7.25;7.25;;;;;;;;5227717;28;8789;-67
2022/05/28 01:39:52;;;;;;;;;13.20;13.20;;;;;;;;5227698;28;8778;-67
2022/05/28 01:42:24;;;;;;;;;11.00;11.00;;;;;;;;5228637;28;8798;-67
2022/05/28 01:44:56;;;;;;;;;12.80;12.40;;;;;;;;5210938;28;8821;-67
2022/05/28 01:47:29;;;;;;;;;12.20;12.20;;;;;;;;5227600;28;8837;-67
2022/05/28 01:50:01;;;;;;;;;12.40;12.40;;;;;;;;5228555;28;8806;-67
2022/05/28 01:52:34;;;;;;;;;11.20;11.20;;;;;;;;5227157;28;8794;-67
2022/05/28 01:55:07;;;;;;;;;17.20;17.20;;;;;;;;5229112;28;8814;-67
2022/05/28 01:57:38;;;;;;;;;12.00;12.00;;;;;;;;5228327;28;9476;-68
2022/05/28 02:00:12;;;;;;;;;15.00;15.00;;;;;;;;5228852;28;8843;-67
2022/05/28 02:02:43;;;;;;;;;17.60;17.60;;;;;;;;5227487;28;8781;-66
2022/05/28 02:05:14;;;;;;;;;19.50;19.50;;;;;;;;5228006;28;8833;-66
2022/05/28 02:07:45;;;;;;;;;17.50;17.50;;;;;;;;5226849;28;8818;-66
2022/05/28 02:10:17;;;;;;;;;13.20;13.20;;;;;;;;5210210;28;10495;-67
2022/05/28 02:13:11;;;;;;;;;13.20;12.80;;;;;;;;5228474;28;8883;-66
2022/05/28 02:15:48;;;;;;;;;12.60;12.60;;;;;;;;5227164;28;8790;-67
2022/05/28 02:18:25;;;;;;;;;10.00;10.00;;;;;;;;5210318;28;8801;-68
2022/05/28 02:21:07;;;;;;;;;12.40;12.40;;;;;;;;5227000;28;8801;-68
2022/05/28 02:23:46;;;;;;;;;9.50;9.50;;;;;;;;5227971;28;8765;-68
2022/05/28 02:26:20;;;;;;;;;11.20;11.20;;;;;;;;5228006;28;8829;-68
2022/05/28 02:28:52;;;;;;;;;12.40;12.40;;;;;;;;5230852;28;8916;-68
2022/05/28 02:31:46;;;;;;;;;13.20;12.60;;;;;;;;5230300;28;9547;-68
2022/05/28 02:34:18;;;;;;;;;13.40;13.00;;;;;;;;5208486;28;9508;-69
2022/05/28 02:36:49;;;;;;;;;12.60;12.60;;;;;;;;5246640;28;8807;-68
2022/05/28 02:39:20;;;;;;;;;9.75;9.75;;;;;;;;5248090;28;8787;-69
2022/05/28 02:41:51;;;;;;;;;10.00;10.00;;;;;;;;5246735;28;8806;-68
2022/05/28 02:44:40;;;;;;;;;11.00;11.00;;;;;;;;5248629;28;8799;-69
2022/05/28 02:47:11;;;;;;;;;11.00;11.00;;;;;;;;5247254;28;9633;-69
2022/05/28 02:50:01;;;;;;;;;11.50;11.50;;;;;;;;5246371;28;9494;-68
2022/05/28 02:52:50;;;;;;;;;10.25;10.25;;;;;;;;5227492;28;8793;-70
2022/05/28 02:55:22;;;;;;;;;13.25;12.75;;;;;;;;5227058;28;8868;-68
2022/05/28 02:57:53;;;;;;;;;11.00;11.00;;;;;;;;5227365;28;10328;-69
2022/05/28 03:00:42;;;;;;;;;14.20;14.20;;;;;;;;5227063;28;9508;-68
2022/05/28 03:03:32;;;;;;;;;12.40;12.40;;;;;;;;5225888;28;8774;-68
2022/05/28 03:06:03;;;;;;;;;13.00;13.00;;;;;;;;5226805;28;8817;-68
2022/05/28 03:08:34;;;;;;;;;16.20;16.20;;;;;;;;5225357;28;8770;-68
2022/05/28 03:11:05;;;;;;;;;16.00;16.00;;;;;;;;5243939;28;8872;-68
2022/05/28 03:13:36;;;;;;;;;13.75;13.75;;;;;;;;5246408;28;11495;-68
2022/05/28 03:16:07;;;;;;;;;13.80;13.80;;;;;;;;5247316;28;9501;-69
2022/05/28 03:18:38;;;;;;;;;14.50;14.50;;;;;;;;5247377;28;8780;-69
2022/05/28 03:21:10;;;;;;;;;15.80;15.80;;;;;;;;5247015;28;8771;-68
2022/05/28 03:23:41;;;;;;;;;15.60;15.60;;;;;;;;5245661;28;8791;-71
2022/05/28 03:26:23;;;;;;;;;14.00;14.00;;;;;;;;5226140;28;8817;-68
2022/05/28 03:29:12;;;;;;;;;11.00;11.00;;;;;;;;5242047;28;8860;-70
2022/05/28 03:31:43;;;;;;;;;15.00;15.00;;;;;;;;5231643;28;8794;-68
2022/05/28 03:34:33;;;;;;;;;22.00;22.00;;;;;;;;5225411;28;9894;-71
2022/05/28 03:37:04;;;;;;;;;26.40;25.60;;;;;;;;5224044;28;8862;-69
2022/05/28 03:39:35;;;;;;;;;23.00;23.00;;;;;;;;5225039;28;8798;-69
2022/05/28 03:42:06;;;;;;;;;17.75;17.75;;;;;;;;5224551;28;8781;-70
2022/05/28 03:44:37;;;;;;;;;14.50;14.50;;;;;;;;5241845;28;12189;-69
2022/05/28 03:47:08;;;;;;;;;14.60;14.60;;;;;;;;5237081;28;11513;-70
2022/05/28 03:49:41;;;;;;;;;14.00;13.25;;;;;;;;5228748;28;8805;-69
2022/05/28 03:52:14;;;;;;;;;12.50;12.50;;;;;;;;5207763;28;8793;-69
2022/05/28 03:54:45;;;;;;;;;11.25;11.25;;;;;;;;5224622;28;8821;-69
2022/05/28 03:57:23;;;;;;;;;15.00;15.00;;;;;;;;5225743;28;8780;-69
2022/05/28 03:59:55;;;;;;;;;10.50;10.50;;;;;;;;5208186;28;8790;-68
2022/05/28 04:02:27;;;;;;;;;11.25;11.25;;;;;;;;5228814;28;8783;-68
2022/05/28 04:05:18;;;;;;;;;13.00;13.00;;;;;;;;5246484;28;8904;-68
2022/05/28 04:08:08;;;;;;;;;11.50;11.50;;;;;;;;5236842;28;8785;-69
2022/05/28 04:10:39;;;;;;;;;12.00;12.00;;;;;;;;5225377;28;8923;-69
2022/05/28 04:13:11;;;;;;;;;10.80;10.80;;;;;;;;5224357;28;8874;-69
2022/05/28 04:15:42;;;;;;;;;13.25;13.25;;;;;;;;5227869;28;8806;-68
2022/05/28 04:18:13;;;;;;;;;13.00;13.00;;;;;;;;5245234;28;8821;-68
2022/05/28 04:20:44;;;;;;;;;10.00;10.00;;;;;;;;5246154;28;8799;-68
2022/05/28 04:23:15;;;;;;;;;14.00;14.00;;;;;;;;5223542;28;8813;-69
2022/05/28 04:26:05;;;;;;;;;15.00;15.00;;;;;;;;5225463;28;8837;-68
2022/05/28 04:28:54;;;;;;;;;14.20;13.80;;;;;;;;5239670;28;8775;-68
2022/05/28 04:31:26;;;;;;;;;12.00;12.00;;;;;;;;5245137;28;8815;-68
2022/05/28 04:34:16;;;;;;;;;14.20;14.20;;;;;;;;5232821;28;8806;-68
2022/05/28 04:36:47;;;;;;;;;10.00;10.00;;;;;;;;5224133;28;8828;-68
2022/05/28 04:39:18;;;;;;;;;13.00;12.75;;;;;;;;5241118;28;8826;-68
2022/05/28 04:42:07;;;;;;;;;11.75;11.75;;;;;;;;5230886;28;8829;-69
2022/05/28 04:44:38;;;;;;;;;10.75;10.75;;;;;;;;5243356;28;8799;-72
2022/05/28 04:47:09;;;;;;;;;9.25;9.25;;;;;;;;5240559;28;9429;-69
2022/05/28 04:49:40;;;;;;;;;13.00;13.00;;;;;;;;5227990;28;8783;-69
2022/05/28 04:52:12;;;;;;;;;10.67;10.67;;;;;;;;5242182;28;8799;-69
2022/05/28 04:54:43;;;;;;;;;7.50;7.50;;;;;;;;5226392;28;8782;-70
2022/05/28 04:57:14;;;;;;;;;12.00;12.00;;;;;;;;5245383;28;8875;-69
2022/05/28 04:59:45;;;;;;;;;11.25;11.25;;;;;;;;5244744;28;11518;-68
2022/05/28 05:02:16;;;;;;;;;10.25;9.75;;;;;;;;5209590;28;8936;-69
2022/05/28 05:04:47;;;;;;;;;9.25;9.25;;;;;;;;5226268;28;8928;-73
2022/05/28 05:07:19;;;;;;;;;7.50;7.50;;;;;;;;5220984;28;8825;-68
2022/05/28 05:09:53;;;;;;;;;10.75;10.75;;;;;;;;5226555;28;8908;-66
2022/05/28 05:12:24;;;;;;;;;10.75;10.75;;;;;;;;5226182;28;8798;-67
2022/05/28 05:15:14;;;;;;;;;10.75;10.75;;;;;;;;5231939;28;8809;-67
2022/05/28 05:17:45;;;;;;;;;9.75;9.75;;;;;;;;5227309;28;8903;-67
2022/05/28 05:20:16;;;;;;;;;10.75;10.75;;;;;;;;5238559;28;9541;-68
2022/05/28 05:22:47;;;;;;;;;10.00;10.00;;;;;;;;5213656;28;8799;-69
2022/05/28 05:25:18;;;;;;;;;11.75;11.75;;;;;;;;5228150;28;8822;-67
2022/05/28 05:28:08;;;;;;;;;11.75;11.75;;;;;;;;5246285;28;8779;-67
2022/05/28 05:30:39;;;;;;;;;14.25;14.25;;;;;;;;5246859;28;8759;-66
2022/05/28 05:33:29;;;;;;;;;46.80;40.40;;;;;;;;5244164;28;8856;-66
2022/05/28 05:36:00;;;;;;;;;12.00;11.75;;;;;;;;5222209;28;8806;-66
2022/05/28 05:38:32;;;;;;;;;7.75;7.75;;;;;;;;5235786;28;8810;-66
2022/05/28 05:41:03;;;;;;;;;13.25;13.25;;;;;;;;5240537;28;8787;-66
2022/05/28 05:43:34;;;;;;;;;17.75;17.75;;;;;;;;5231206;28;8803;-66
2022/05/28 05:46:05;;;;;;;;;16.25;16.25;;;;;;;;5248096;28;8945;-66
2022/05/28 05:48:36;;;;;;;;;18.75;18.75;;;;;;;;5231548;28;9574;-66
2022/05/28 05:51:10;;;;;;;;;15.00;15.00;;;;;;;;5247509;28;8825;-66
2022/05/28 05:53:42;;;;;;;;;18.25;18.25;;;;;;;;5231123;28;8779;-66
2022/05/28 05:56:31;;;;;;;;;24.75;24.75;;;;;;;;5233933;28;8775;-67
2022/05/28 05:59:02;;;;;;;;;18.00;18.00;;;;;;;;5247961;28;9536;-66
2022/05/28 06:01:33;;;;;;;;;13.67;13.67;;;;;;;;5247305;28;8791;-66
2022/05/28 06:04:04;;;;;;;;;8.50;8.50;;;;;;;;5231100;28;8770;-66
2022/05/28 06:06:35;;;;;;;;;7.75;7.75;;;;;;;;5247998;28;8863;-66
2022/05/28 06:09:25;;;;;;;;;10.50;10.50;;;;;;;;5248592;28;8790;-66
2022/05/28 06:11:56;;;;;;;;;9.50;9.50;;;;;;;;5214370;28;9540;-66
2022/05/28 06:14:27;;;;;;;;;7.25;7.25;;;;;;;;5248516;28;8795;-66
2022/05/28 06:16:58;;;;;;;;;26.25;26.00;;;;;;;;5247471;28;8811;-66
2022/05/28 06:19:29;;;;;;;;;11.50;11.50;;;;;;;;5247406;28;8787;-66
2022/05/28 06:22:00;;;;;;;;;10.00;10.00;;;;;;;;5247293;28;8795;-66
2022/05/28 06:24:31;;;;;;;;;9.00;9.00;;;;;;;;5248239;28;9793;-66
2022/05/28 06:27:03;;;;;;;;;14.25;14.25;;;;;;;;5248491;28;8818;-66
2022/05/28 06:29:33;;;;;;;;;10.50;10.50;;;;;;;;5230684;28;8779;-66
2022/05/28 06:32:05;;;;;;;;;8.67;8.67;;;;;;;;5230721;28;8790;-66
2022/05/28 06:34:55;;;;;;;;;9.00;9.00;;;;;;;;5247109;28;9130;-67
2022/05/28 06:37:26;;;;;;;;;10.00;10.00;;;;;;;;5213975;28;8822;-66
2022/05/28 06:40:15;;;;;;;;;30.50;28.00;;;;;;;;5247494;28;8814;-66
2022/05/28 06:42:47;;;;;;;;;17.75;17.75;;;;;;;;5246888;28;8969;-66
2022/05/28 06:45:19;;;;;;;;;11.50;11.50;;;;;;;;5230355;28;8841;-67
2022/05/28 06:47:51;;;;;;;;;8.75;8.75;;;;;;;;5230410;28;8795;-66
2022/05/28 06:53:12;;;;;;;;;21.60;21.60;;;;;;;;5230228;28;8783;-65
2022/05/28 06:55:43;;;;;;;;;16.00;16.00;;;;;;;;5246628;28;8799;-65
2022/05/28 06:58:14;;;;;;;;;6.50;6.50;;;;;;;;5246509;28;8775;-65
2022/05/28 07:00:45;;;;;;;;;10.00;10.00;;;;;;;;5246560;28;8918;-65
2022/05/28 07:03:17;;;;;;;;;10.00;10.00;;;;;;;;5246304;28;8884;-65
2022/05/28 07:05:49;;;;;;;;;9.00;9.00;;;;;;;;5246245;28;10373;-67
2022/05/28 07:08:21;;;;;;;;;8.00;8.00;;;;;;;;5246218;28;8787;-66
2022/05/28 07:10:54;;;;;;;;;8.75;8.75;;;;;;;;5246439;28;8775;-66
2022/05/28 07:13:26;;;;;;;;;9.25;9.25;;;;;;;;5246423;28;8787;-66
2022/05/28 07:15:58;;;;;;;;;11.50;11.50;;;;;;;;5246703;28;8802;-67
2022/05/28 07:18:29;;;;;;;;;10.25;10.25;;;;;;;;5229626;28;8909;-67
2022/05/28 07:21:00;;;;;;;;;19.75;19.00;;;;;;;;5245871;28;8783;-66
2022/05/28 07:23:31;;;;;;;;;9.25;9.25;;;;;;;;5247508;28;9554;-67
2022/05/28 07:26:13;;;;;;;;;11.50;11.50;;;;;;;;5247238;28;8799;-65
2022/05/28 07:28:45;;;;;;;;;10.25;10.25;;;;;;;;5246106;28;8794;-65
2022/05/28 07:31:24;;;;;;;;;8.00;7.00;;;;;;;;5212969;28;8786;-64
2022/05/28 07:33:55;;;;;;;;;11.00;11.00;;;;;;;;5229522;28;8771;-64
2022/05/28 07:36:27;;;;;;;;;10.75;10.75;;;;;;;;5229414;28;8783;-64
2022/05/28 07:38:58;;;;;;;;;6.00;6.00;;;;;;;;5245820;28;9556;-64
2022/05/28 07:41:48;;;;;;;;;5.00;5.00;;;;;;;;5245560;28;8811;-65
2022/05/28 07:44:19;;;;;;;;;3.50;3.50;;;;;;;;5245763;28;8783;-66
2022/05/28 07:46:50;;;;;;;;;4.50;4.50;;;;;;;;5246824;28;8835;-66
2022/05/28 07:49:40;;;;;;;;;6.00;6.00;;;;;;;;5246759;28;8783;-66
2022/05/28 07:52:11;;;;;;;;;3.25;3.25;;;;;;;;5245487;28;8833;-66
2022/05/28 07:55:01;;;;;;;;;15.00;14.75;;;;;;;;5245694;28;9500;-67
2022/05/28 07:57:33;;;;;;;;;12.25;11.50;;;;;;;;5246704;28;8790;-66
2022/05/28 08:00:04;;;;;;;;;4.75;4.75;;;;;;;;5245333;28;9530;-66
2022/05/28 08:02:42;;;;;;;;;4.00;4.00;;;;;;;;5245965;28;8806;-65
2022/05/28 08:05:13;;;;;;;;;3.00;3.00;;;;;;;;5247533;28;8912;-65
2022/05/28 08:07:44;;;;;;;;;3.25;3.25;;;;;;;;5245531;28;8783;-65
2022/05/28 08:10:15;;;;;;;;;2.00;2.00;;;;;;;;5245558;28;8787;-65
2022/05/28 08:12:46;;;;;;;;;3.00;3.00;;;;;;;;5228597;28;11468;-65
2022/05/28 08:15:18;;;;;;;;;2.75;2.75;;;;;;;;5246752;28;8822;-66
2022/05/28 08:17:48;;;;;;;;;5.50;5.50;;;;;;;;5246382;28;8779;-66
2022/05/28 08:23:08;;;;;;;;;6.67;6.67;;;;;;;;5245462;28;8779;-66
2022/05/28 08:23:11;;;;;;;;;2.50;2.50;;;;;;;;5245774;28;8779;-66
2022/05/28 08:25:42;;;;;;;;;3.25;3.25;;;;;;;;5228321;28;8831;-66
2022/05/28 08:28:13;;;;;;;;;5.00;5.00;;;;;;;;5212158;28;8876;-65
2022/05/28 08:30:44;;;;;;;;;5.75;5.75;;;;;;;;5228590;28;11376;-66
2022/05/28 08:33:16;;;;;;;;;5.00;5.00;;;;;;;;5245155;28;8864;-66
2022/05/28 08:36:06;;;;;;;;;5.00;5.00;;;;;;;;5231511;28;8814;-66
2022/05/28 08:38:39;;;;;;;;;7.00;7.00;;;;;;;;5246504;28;9510;-66
2022/05/28 08:41:37;;;;;;;;;6.00;6.00;;;;;;;;5230706;28;8791;-66
2022/05/28 08:44:30;;;;;;;;;5.75;5.75;;;;;;;;5246446;28;8815;-66
2022/05/28 08:47:07;;;;;;;;;7.00;7.00;;;;;;;;5211719;28;8850;-66
2022/05/28 08:49:38;;;;;;;;;5.75;5.75;;;;;;;;5211882;28;8776;-66
2022/05/28 08:52:25;;;;;;;;;6.75;6.75;;;;;;;;5244976;28;8771;-66
2022/05/28 08:55:19;;;;;;;;;4.00;4.00;;;;;;;;5211990;28;8799;-66
2022/05/28 08:57:53;;;;;;;;;4.00;4.00;;;;;;;;5237668;28;8818;-66
2022/05/28 09:00:42;;;;;;;;;2.00;2.00;;;;;;;;5244869;28;8890;-67
2022/05/28 09:03:18;;;;;;;;;3.00;3.00;;;;;;;;5228693;28;8779;-66
2022/05/28 09:06:07;;;;;;;;;2.75;2.75;;;;;;;;5211869;28;9545;-66
2022/05/28 09:08:39;;;;;;;;;3.00;3.00;;;;;;;;5228308;28;8779;-66
2022/05/28 09:11:16;;;;;;;;;3.75;3.75;;;;;;;;5211412;28;8771;-66
2022/05/28 09:13:49;;;;;;;;;6.50;6.50;;;;;;;;5211640;28;9560;-66
2022/05/28 09:16:31;;;;;;;;;1.75;1.75;;;;;;;;5211573;28;8779;-66
2022/05/28 09:19:05;;;;;;;;;8.75;8.75;;;;;;;;5211487;28;8783;-66
2022/05/28 09:21:36;;;;;;;;;3.00;3.00;;;;;;;;5227924;28;8915;-66
2022/05/28 09:24:27;;;;;;;;;1.00;1.00;;;;;;;;5244945;28;9499;-66
2022/05/28 09:26:58;;;;;;;;;2.00;2.00;;;;;;;;5244604;28;8821;-66
2022/05/28 09:29:32;;;;;;;;;2.25;2.25;;;;;;;;5245827;28;8771;-66
2022/05/28 09:32:21;;;;;;;;;1.00;1.00;;;;;;;;5211361;28;8775;-66
2022/05/28 09:34:55;;;;;;;;;4.50;4.50;;;;;;;;5244896;28;8840;-66
2022/05/28 09:37:52;;;;;;;;;14.25;14.25;;;;;;;;5211283;28;8815;-66
2022/05/28 09:40:43;;;;;;;;;19.25;19.25;;;;;;;;5244393;28;8813;-66
2022/05/28 09:43:52;;;;;;;;;9.00;9.00;;;;;;;;5246078;28;8803;-66
2022/05/28 09:46:39;;;;;;;;;5.50;5.25;;;;;;;;5248131;28;8831;-66
2022/05/28 09:49:13;;;;;;;;;2.75;2.75;;;;;;;;5231602;28;8779;-65
2022/05/28 09:51:50;;;;;;;;;2.75;2.75;;;;;;;;5231408;28;8776;-67
2022/05/28 09:54:23;;;;;;;;;3.00;3.00;;;;;;;;5231403;28;8860;-67
2022/05/28 09:57:09;;;;;;;;;4.00;4.00;;;;;;;;5214533;28;8799;-67
2022/05/28 09:59:43;;;;;;;;;4.00;4.00;;;;;;;;5229961;28;8826;-66
2022/05/28 10:02:17;;;;;;;;;6.00;6.00;;;;;;;;5229114;28;9578;-65
2022/05/28 10:04:51;;;;;;;;;8.00;7.25;;;;;;;;5223493;28;8962;-65
2022/05/28 10:07:33;;;;;;;;;8.50;8.50;;;;;;;;5227794;28;8806;-65
2022/05/28 10:10:19;;;;;;;;;8.25;8.25;;;;;;;;5194130;28;8778;-65
2022/05/28 10:12:50;;;;;;;;;5.00;5.00;;;;;;;;5212937;28;8802;-66
2022/05/28 10:15:28;;;;;;;;;11.50;11.50;;;;;;;;5226471;28;8898;-66
2022/05/28 10:18:01;;;;;;;;;9.25;9.25;;;;;;;;5227878;28;8821;-67
2022/05/28 10:21:10;;;;;;;;;9.00;9.00;;;;;;;;5245146;28;8799;-67
2022/05/28 10:23:43;;;;;;;;;2.00;2.00;;;;;;;;5227468;28;8807;-68
2022/05/28 10:26:30;;;;;;;;;5.00;5.00;;;;;;;;5245845;28;8826;-66
2022/05/28 10:29:03;;;;;;;;;4.75;4.75;;;;;;;;5233666;28;8786;-66
2022/05/28 10:31:40;;;;;;;;;7.75;7.75;;;;;;;;5216449;28;8809;-66
2022/05/28 10:34:41;;;;;;;;;6.00;6.00;;;;;;;;5213953;28;9510;-66
2022/05/28 10:37:16;;;;;;;;;7.75;7.50;;;;;;;;5226145;28;8851;-65
2022/05/28 10:40:17;;;;;;;;;6.50;6.50;;;;;;;;5226648;28;8781;-66
2022/05/28 10:42:48;;;;;;;;;8.00;8.00;;;;;;;;5243703;28;8831;-66
2022/05/28 10:45:20;;;;;;;;;7.00;7.00;;;;;;;;5230748;28;8923;-67
2022/05/28 10:47:51;;;;;;;;;4.25;4.25;;;;;;;;5247193;28;8796;-66
2022/05/28 10:50:47;;;;;;;;;4.50;4.50;;;;;;;;5247069;28;8798;-67
2022/05/28 10:53:28;;;;;;;;;3.50;3.50;;;;;;;;5226303;28;8810;-66
2022/05/28 10:56:18;;;;;;;;;6.00;6.00;;;;;;;;5208847;28;8904;-66
2022/05/28 10:59:05;;;;;;;;;3.00;3.00;;;;;;;;5209540;28;8774;-67
2022/05/28 11:01:39;;;;;;;;;7.25;7.25;;;;;;;;5209367;28;8803;-65
2022/05/28 11:04:20;;;;;;;;;4.50;4.50;;;;;;;;5226560;28;8816;-67
2022/05/28 11:07:12;;;;;;;;;6.25;6.25;;;;;;;;5225918;28;8821;-66
2022/05/28 11:10:00;;;;;;;;;6.25;6.25;;;;;;;;5209152;28;8766;-66
2022/05/28 11:12:48;;;;;;;;;11.50;11.50;;;;;;;;5200689;28;8767;-66
2022/05/28 11:15:54;;;;;;;;;63.40;51.80;;;;;;;;5246600;28;8787;-66
2022/05/28 11:18:49;;;;;;;;;8.50;8.50;;;;;;;;5252276;28;8917;-67
2022/05/28 11:21:20;;;;;;;;;8.50;8.50;;;;;;;;5209515;28;8790;-66
2022/05/28 11:23:54;;;;;;;;;10.00;9.00;;;;;;;;5225250;28;8847;-66
2022/05/28 11:26:34;;;;;;;;;10.75;10.75;;;;;;;;5192109;28;8852;-67
2022/05/28 11:29:15;;;;;;;;;11.25;11.25;;;;;;;;5225504;28;8778;-64
2022/05/28 11:32:06;;;;;;;;;11.50;11.50;;;;;;;;5218656;28;8808;-65
2022/05/28 11:34:47;;;;;;;;;12.00;12.00;;;;;;;;5208058;28;8817;-67
2022/05/28 11:37:31;;;;;;;;;13.00;13.00;;;;;;;;5225450;28;8793;-66
2022/05/28 11:40:02;;;;;;;;;10.75;10.75;;;;;;;;5208365;28;9544;-66
2022/05/28 11:42:52;;;;;;;;;11.00;11.00;;;;;;;;5208388;28;8806;-67
2022/05/28 11:45:44;;;;;;;;;6.50;6.50;;;;;;;;5224467;28;8836;-65
2022/05/28 11:51:33;;;;;;;;;9.50;9.50;;;;;;;;5229259;28;8815;-67
2022/05/28 11:54:10;;;;;;;;;11.00;11.00;;;;;;;;5212692;28;8848;-66
2022/05/28 11:56:41;;;;;;;;;12.00;12.00;;;;;;;;5243607;28;8774;-67
2022/05/28 11:59:15;;;;;;;;;10.50;10.50;;;;;;;;5194101;28;8790;-66
2022/05/28 12:01:50;;;;;;;;;15.50;14.50;;;;;;;;5212760;28;8813;-65
2022/05/28 12:04:21;;;;;;;;;8.50;8.50;;;;;;;;5208413;28;8786;-66
2022/05/28 12:07:10;;;;;;;;;7.25;7.25;;;;;;;;5241625;28;8827;-66
2022/05/28 12:09:43;;;;;;;;;7.67;7.67;;;;;;;;5246493;28;8771;-65
2022/05/28 12:12:13;;;;;;;;;6.00;6.00;;;;;;;;5228263;28;8798;-66
2022/05/28 12:14:47;;;;;;;;;5.00;5.00;;;;;;;;5228403;28;8786;-66
2022/05/28 12:17:18;;;;;;;;;5.00;5.00;;;;;;;;5228492;28;8787;-67
2022/05/28 12:20:00;;;;;;;;;4.33;4.33;;;;;;;;5208098;28;9493;-65
2022/05/28 12:22:54;;;;;;;;;12.00;12.00;;;;;;;;5224057;28;8890;-65
2022/05/28 12:25:29;;;;;;;;;12.50;12.50;;;;;;;;5207716;28;8894;-66
2022/05/28 12:28:27;;;;;;;;;9.75;9.75;;;;;;;;5210823;28;9515;-66
2022/05/28 12:31:24;;;;;;;;;76.00;67.40;;;;;;;;5210260;28;8792;-67
2022/05/28 12:34:00;;;;;;;;;5.00;5.00;;;;;;;;5206329;28;8801;-66
2022/05/28 12:36:47;;;;;;;;;9.50;9.50;;;;;;;;5219485;28;8798;-66
2022/05/28 12:39:40;;;;;;;;;5.50;5.50;;;;;;;;5243658;28;8783;-67
2022/05/28 12:42:21;;;;;;;;;6.00;6.00;;;;;;;;5244873;28;8817;-66
2022/05/28 12:45:29;;;;;;;;;7.25;7.25;;;;;;;;5229899;28;8962;-66
2022/05/28 12:48:12;;;;;;;;;7.25;7.25;;;;;;;;5244875;28;8775;-66
2022/05/28 12:50:43;;;;;;;;;10.25;10.25;;;;;;;;5224264;28;8801;-66
2022/05/28 12:53:21;;;;;;;;;1.00;1.00;;;;;;;;5230511;28;8809;-66
2022/05/28 12:56:07;;;;;;;;;2.75;2.75;;;;;;;;5208287;28;11525;-66
2022/05/28 12:58:38;;;;;;;;;2.00;2.00;;;;;;;;5228586;28;8820;-66
2022/05/28 13:01:27;;;;;;;;;2.50;2.50;;;;;;;;5212041;28;9540;-67
2022/05/28 13:03:58;;;;;;;;;2.00;2.00;;;;;;;;5239214;28;8938;-66
2022/05/28 13:06:45;;;;;;;;;7.00;7.00;;;;;;;;5222553;28;8841;-66
2022/05/28 13:09:18;;;;;;;;;4.25;4.25;;;;;;;;5210295;28;8801;-66
2022/05/28 13:12:11;;;;;;;;;5.00;5.00;;;;;;;;5224090;28;8793;-65
2022/05/28 13:15:04;;;;;;;;;5.50;5.50;;;;;;;;5208205;28;9523;-66
2022/05/28 13:17:55;;;;;;;;;7.50;7.50;;;;;;;;5225465;28;8784;-65
2022/05/28 13:20:35;;;;;;;;;11.25;11.25;;;;;;;;5227429;28;8792;-67
2022/05/28 13:23:40;;;;;;;;;18.60;18.40;;;;;;;;5226604;28;8935;-65
2022/05/28 13:26:21;;;;;;;;;23.00;23.00;;;;;;;;5227491;28;8822;-65
2022/05/28 13:29:11;;;;;;;;;19.20;19.20;;;;;;;;5228004;28;8805;-66
2022/05/28 13:31:46;;;;;;;;;20.40;20.40;;;;;;;;5228003;28;8986;-66
2022/05/28 13:34:20;;;;;;;;;18.60;18.00;;;;;;;;5210715;28;8860;-66
2022/05/28 13:36:51;;;;;;;;;17.20;17.20;;;;;;;;5228457;28;8925;-66
2022/05/28 13:39:34;;;;;;;;;19.20;19.20;;;;;;;;5228503;28;8796;-66
2022/05/28 13:42:38;;;;;;;;;13.50;13.50;;;;;;;;5230749;28;8819;-66
2022/05/28 13:45:23;;;;;;;;;8.25;8.25;;;;;;;;5237795;28;8826;-66
2022/05/28 13:48:01;;;;;;;;;4.00;4.00;;;;;;;;5230933;28;8854;-66
2022/05/28 13:50:35;;;;;;;;;4.50;4.50;;;;;;;;5227201;28;8875;-65
2022/05/28 13:53:07;;;;;;;;;7.50;7.00;;;;;;;;5210980;28;9636;-65
2022/05/28 13:56:01;;;;;;;;;6.75;6.75;;;;;;;;5238319;28;8807;-66
2022/05/28 13:58:51;;;;;;;;;5.50;5.00;;;;;;;;5227545;28;8769;-66
2022/05/28 14:01:22;;;;;;;;;8.75;8.75;;;;;;;;5220162;28;8811;-66
2022/05/28 14:03:54;;;;;;;;;12.50;12.50;;;;;;;;5214579;28;8779;-66
2022/05/28 14:06:26;;;;;;;;;14.60;14.60;;;;;;;;5248368;28;8838;-65
2022/05/28 14:09:01;;;;;;;;;15.00;15.00;;;;;;;;5248322;28;8822;-66
2022/05/28 14:11:35;;;;;;;;;15.80;15.80;;;;;;;;5214703;28;8787;-66
2022/05/28 14:14:13;;;;;;;;;14.60;14.60;;;;;;;;5247633;28;8767;-66
2022/05/28 14:16:55;;;;;;;;;15.00;15.00;;;;;;;;5247440;28;8798;-66
2022/05/28 14:19:36;;;;;;;;;10.50;10.50;;;;;;;;5209686;28;8822;-66
2022/05/28 14:22:18;;;;;;;;;10.00;10.00;;;;;;;;5210353;28;8823;-67
2022/05/28 14:24:52;;;;;;;;;7.75;7.75;;;;;;;;5193704;28;8867;-66
2022/05/28 14:27:25;;;;;;;;;9.25;9.25;;;;;;;;5200310;28;9568;-67
2022/05/28 14:30:00;;;;;;;;;5.00;5.00;;;;;;;;5225822;28;8882;-67
2022/05/28 14:32:53;;;;;;;;;6.75;6.75;;;;;;;;5227211;28;9599;-67
2022/05/28 14:35:42;;;;;;;;;10.75;10.75;;;;;;;;5227273;28;8798;-67
2022/05/28 14:38:32;;;;;;;;;8.50;8.50;;;;;;;;5235185;28;8818;-67
2022/05/28 14:41:09;;;;;;;;;11.50;11.25;;;;;;;;5209597;28;9533;-66
2022/05/28 14:43:50;;;;;;;;;16.20;15.80;;;;;;;;5193298;28;8805;-66
2022/05/28 14:46:40;;;;;;;;;33.20;31.20;;;;;;;;5226065;28;8821;-66
2022/05/28 14:49:22;;;;;;;;;32.60;31.00;;;;;;;;5227398;28;8875;-66
2022/05/28 14:51:56;;;;;;;;;30.80;30.60;;;;;;;;5242645;28;8789;-66
2022/05/28 14:54:37;;;;;;;;;32.00;31.20;;;;;;;;5225984;28;8805;-66
2022/05/28 14:57:19;;;;;;;;;35.80;32.20;;;;;;;;5192708;28;8926;-66
2022/05/28 14:59:50;;;;;;;;;24.40;23.80;;;;;;;;5226131;28;8785;-66
2022/05/28 15:02:27;;;;;;;;;25.00;24.80;;;;;;;;5225778;28;8793;-65
2022/05/28 15:05:09;;;;;;;;;29.60;29.60;;;;;;;;5220680;28;8931;-67
2022/05/28 15:07:48;;;;;;;;;9.80;8.80;;;;;;;;5249358;28;9548;-66
2022/05/28 15:10:20;;;;;;;;;33.80;31.00;;;;;;;;5265007;28;8784;-66
2022/05/28 15:12:51;;;;;;;;;29.40;28.80;;;;;;;;5250446;28;8794;-67
2022/05/28 15:15:22;;;;;;;;;30.80;30.20;;;;;;;;5250208;28;8907;-68
2022/05/28 15:17:54;;;;;;;;;39.25;35.75;;;;;;;;5240994;28;8916;-66
2022/05/28 15:20:25;;;;;;;;;42.60;38.00;;;;;;;;5225580;28;11537;-66
2022/05/28 15:22:56;;;;;;;;;44.60;38.80;;;;;;;;5226405;28;8789;-66
2022/05/28 15:25:46;;;;;;;;;40.20;36.80;;;;;;;;5229920;28;8814;-67
2022/05/28 15:28:17;;;;;;;;;39.80;35.60;;;;;;;;5225721;28;8859;-66
2022/05/28 15:30:49;;;;;;;;;32.00;31.80;;;;;;;;5209462;28;8836;-66
2022/05/28 15:33:22;;;;;;;;;35.80;33.40;;;;;;;;5228084;28;8786;-65
2022/05/28 15:39:01;;;;;;;;;25.80;25.20;;;;;;;;5223019;28;8793;-68
2022/05/28 15:41:34;;;;;;;;;21.50;21.00;;;;;;;;5223593;28;8793;-64
2022/05/28 15:44:23;;;;;;;;;20.40;20.40;;;;;;;;5236601;28;8787;-65
2022/05/28 15:46:54;;;;;;;;;14.00;14.00;;;;;;;;5224165;28;8870;-65
2022/05/28 15:49:25;;;;;;;;;20.60;20.20;;;;;;;;5239030;28;8808;-66
2022/05/28 15:51:56;;;;;;;;;14.00;14.00;;;;;;;;5223094;28;8790;-65